Tangerine, Florida
Current Conditions -  °F | °C
As of 2:53 AM on Monday 26 Jan 2015 (Local Time) from KLEE Reporting Station
Clear Clear  
Wind Chill: 57°   Ceiling: Unl
Heat Index: 57°   Visibility: 10mi
Dew Point: 52°   Wind: 13mph
Humidity: 83%   Direction: 200°SSW
Pressure: 29.87"   Gusts: NA
Location:  28.76°N, 81.63°W
Report Text: KLEE 260753Z AUTO 20011KT 10SM CLR 14/11 A2987 RMK AO2 SLP112 T01390111
Loading
Personal Weather Stations






























Interactive Weather Map New forecast layout! Learn more

10-Day Weather Forecast

Advertisements
Track Severe Weather on mobile